sensor_id;sensor_type;location;lat;lon;timestamp;pressure;altitude;pressure_sealevel;temperature;humidity
15405;BME280;7801;48.124;11.590;2023-06-22T00:00:12;95523.38;;;22.38;76.92
15405;BME280;7801;48.124;11.590;2023-06-22T00:02:40;95508.41;;;22.44;76.68
15405;BME280;7801;48.124;11.590;2023-06-22T00:05:07;95493.03;;;22.52;76.21
15405;BME280;7801;48.124;11.590;2023-06-22T00:07:33;95493.16;;;22.33;76.40
15405;BME280;7801;48.124;11.590;2023-06-22T00:10:01;95485.41;;;22.31;76.68
15405;BME280;7801;48.124;11.590;2023-06-22T00:12:30;95488.81;;;22.28;76.85
15405;BME280;7801;48.124;11.590;2023-06-22T00:15:01;95491.94;;;22.30;76.62
15405;BME280;7801;48.124;11.590;2023-06-22T00:17:26;95500.12;;;22.34;76.62
15405;BME280;7801;48.124;11.590;2023-06-22T00:19:57;95504.31;;;22.31;77.43
15405;BME280;7801;48.124;11.590;2023-06-22T00:22:44;95505.16;;;22.35;76.75
15405;BME280;7801;48.124;11.590;2023-06-22T00:25:11;95496.94;;;22.28;76.88
15405;BME280;7801;48.124;11.590;2023-06-22T00:27:38;95500.00;;;22.26;76.82
15405;BME280;7801;48.124;11.590;2023-06-22T00:30:24;95501.91;;;22.26;76.87
15405;BME280;7801;48.124;11.590;2023-06-22T00:32:51;95506.34;;;22.11;77.89
15405;BME280;7801;48.124;11.590;2023-06-22T00:35:17;95500.62;;;22.16;77.64
15405;BME280;7801;48.124;11.590;2023-06-22T00:37:47;95499.56;;;22.21;77.03
15405;BME280;7801;48.124;11.590;2023-06-22T00:40:14;95500.69;;;22.20;77.80
15405;BME280;7801;48.124;11.590;2023-06-22T00:42:45;95498.00;;;22.20;77.12
15405;BME280;7801;48.124;11.590;2023-06-22T00:45:13;95504.06;;;22.13;77.69
15405;BME280;7801;48.124;11.590;2023-06-22T00:47:44;95501.88;;;22.00;77.61
15405;BME280;7801;48.124;11.590;2023-06-22T00:50:18;95497.44;;;22.11;78.22
15405;BME280;7801;48.124;11.590;2023-06-22T00:52:56;95497.37;;;22.07;77.45
15405;BME280;7801;48.124;11.590;2023-06-22T00:55:26;95489.66;;;22.06;77.85
15405;BME280;7801;48.124;11.590;2023-06-22T00:57:54;95495.00;;;22.02;77.51
15405;BME280;7801;48.124;11.590;2023-06-22T01:00:35;95492.94;;;21.95;77.41
15405;BME280;7801;48.124;11.590;2023-06-22T01:03:05;95486.41;;;21.97;77.41
15405;BME280;7801;48.124;11.590;2023-06-22T01:05:41;95494.25;;;21.82;78.37
15405;BME280;7801;48.124;11.590;2023-06-22T01:08:53;95481.28;;;21.91;78.86
15405;BME280;7801;48.124;11.590;2023-06-22T01:11:37;95476.38;;;21.97;78.44
15405;BME280;7801;48.124;11.590;2023-06-22T01:14:47;95471.69;;;21.94;77.57
15405;BME280;7801;48.124;11.590;2023-06-22T01:17:19;95467.56;;;21.77;78.16
15405;BME280;7801;48.124;11.590;2023-06-22T01:19:50;95467.25;;;21.82;78.01
15405;BME280;7801;48.124;11.590;2023-06-22T01:22:23;95465.16;;;21.72;79.02
15405;BME280;7801;48.124;11.590;2023-06-22T01:25:19;95464.88;;;21.77;78.36
15405;BME280;7801;48.124;11.590;2023-06-22T01:30:30;95461.75;;;21.75;78.67
15405;BME280;7801;48.124;11.590;2023-06-22T01:33:02;95462.09;;;21.74;78.31
15405;BME280;7801;48.124;11.590;2023-06-22T01:35:29;95455.00;;;21.66;78.85
15405;BME280;7801;48.124;11.590;2023-06-22T01:37:56;95452.31;;;21.66;78.88
15405;BME280;7801;48.124;11.590;2023-06-22T01:40:44;95454.28;;;21.69;79.57
15405;BME280;7801;48.124;11.590;2023-06-22T01:43:11;95449.59;;;21.66;79.38
15405;BME280;7801;48.124;11.590;2023-06-22T01:45:37;95448.03;;;21.65;79.03
15405;BME280;7801;48.124;11.590;2023-06-22T01:48:05;95442.59;;;21.61;79.53
15405;BME280;7801;48.124;11.590;2023-06-22T01:50:31;95450.16;;;21.52;80.23
15405;BME280;7801;48.124;11.590;2023-06-22T01:53:01;95438.22;;;21.53;79.39
15405;BME280;7801;48.124;11.590;2023-06-22T01:55:34;95437.09;;;21.54;80.40
15405;BME280;7801;48.124;11.590;2023-06-22T01:58:03;95439.50;;;21.59;79.98
15405;BME280;7801;48.124;11.590;2023-06-22T02:00:31;95436.78;;;21.59;79.84
15405;BME280;7801;48.124;11.590;2023-06-22T02:06:01;95437.50;;;21.56;80.58
15405;BME280;7801;48.124;11.590;2023-06-22T02:08:31;95443.41;;;21.65;79.42
15405;BME280;7801;48.124;11.590;2023-06-22T02:10:59;95446.84;;;21.62;80.63
15405;BME280;7801;48.124;11.590;2023-06-22T02:13:26;95441.50;;;21.66;80.09
15405;BME280;7801;48.124;11.590;2023-06-22T02:15:55;95443.50;;;21.69;80.53
15405;BME280;7801;48.124;11.590;2023-06-22T02:18:22;95451.66;;;21.72;80.60
15405;BME280;7801;48.124;11.590;2023-06-22T02:20:50;95453.63;;;21.75;80.16
15405;BME280;7801;48.124;11.590;2023-06-22T02:23:16;95451.66;;;21.72;79.85
15405;BME280;7801;48.124;11.590;2023-06-22T02:25:42;95439.94;;;21.65;80.30
15405;BME280;7801;48.124;11.590;2023-06-22T02:28:16;95448.81;;;21.65;80.91
15405;BME280;7801;48.124;11.590;2023-06-22T02:30:45;95448.41;;;21.63;80.17
15405;BME280;7801;48.124;11.590;2023-06-22T02:33:11;95449.25;;;21.67;80.38
15405;BME280;7801;48.124;11.590;2023-06-22T02:35:38;95450.03;;;21.68;80.59
15405;BME280;7801;48.124;11.590;2023-06-22T02:38:06;95446.53;;;21.67;80.52
15405;BME280;7801;48.124;11.590;2023-06-22T02:40:32;95463.81;;;21.62;80.51
15405;BME280;7801;48.124;11.590;2023-06-22T02:42:58;95468.06;;;21.60;80.55
15405;BME280;7801;48.124;11.590;2023-06-22T02:45:29;95474.41;;;21.71;81.02
15405;BME280;7801;48.124;11.590;2023-06-22T02:47:55;95477.53;;;21.73;80.43
15405;BME280;7801;48.124;11.590;2023-06-22T02:50:25;95483.22;;;21.68;80.41
15405;BME280;7801;48.124;11.590;2023-06-22T02:52:51;95482.84;;;21.70;80.56
15405;BME280;7801;48.124;11.590;2023-06-22T02:55:18;95486.06;;;21.75;80.15
15405;BME280;7801;48.124;11.590;2023-06-22T02:57:48;95487.69;;;21.80;80.31
15405;BME280;7801;48.124;11.590;2023-06-22T03:00:19;95482.63;;;21.78;79.81
15405;BME280;7801;48.124;11.590;2023-06-22T03:02:47;95472.63;;;21.82;79.21
15405;BME280;7801;48.124;11.590;2023-06-22T03:05:17;95472.97;;;21.77;79.43
15405;BME280;7801;48.124;11.590;2023-06-22T03:07:45;95469.12;;;21.78;79.01
15405;BME280;7801;48.124;11.590;2023-06-22T03:10:13;95464.16;;;21.80;79.45
15405;BME280;7801;48.124;11.590;2023-06-22T03:12:50;95467.72;;;21.65;78.70
15405;BME280;7801;48.124;11.590;2023-06-22T03:15:20;95465.37;;;21.64;79.05
15405;BME280;7801;48.124;11.590;2023-06-22T03:17:48;95470.44;;;21.65;79.52
15405;BME280;7801;48.124;11.590;2023-06-22T03:20:17;95464.25;;;21.65;80.32
15405;BME280;7801;48.124;11.590;2023-06-22T03:22:46;95466.50;;;21.59;79.97
15405;BME280;7801;48.124;11.590;2023-06-22T03:25:14;95470.75;;;21.60;80.24
15405;BME280;7801;48.124;11.590;2023-06-22T03:27:41;95464.94;;;21.58;80.63
15405;BME280;7801;48.124;11.590;2023-06-22T03:30:10;95461.81;;;21.56;79.95
15405;BME280;7801;48.124;11.590;2023-06-22T03:32:39;95457.53;;;21.55;80.51
15405;BME280;7801;48.124;11.590;2023-06-22T03:35:06;95463.44;;;21.60;80.30
15405;BME280;7801;48.124;11.590;2023-06-22T03:37:36;95463.72;;;21.55;80.39
15405;BME280;7801;48.124;11.590;2023-06-22T03:40:05;95468.69;;;21.53;80.92
15405;BME280;7801;48.124;11.590;2023-06-22T03:42:34;95460.66;;;21.57;80.60
15405;BME280;7801;48.124;11.590;2023-06-22T03:45:03;95459.69;;;21.69;80.50
15405;BME280;7801;48.124;11.590;2023-06-22T03:47:29;95461.19;;;21.66;79.51
15405;BME280;7801;48.124;11.590;2023-06-22T03:49:57;95469.62;;;21.61;80.78
15405;BME280;7801;48.124;11.590;2023-06-22T03:52:24;95470.38;;;21.61;80.78
15405;BME280;7801;48.124;11.590;2023-06-22T03:54:51;95463.38;;;21.57;80.77
15405;BME280;7801;48.124;11.590;2023-06-22T03:59:46;95465.72;;;21.58;80.87
15405;BME280;7801;48.124;11.590;2023-06-22T04:02:13;95476.44;;;21.55;80.52
15405;BME280;7801;48.124;11.590;2023-06-22T04:04:40;95470.31;;;21.58;80.28
15405;BME280;7801;48.124;11.590;2023-06-22T04:07:07;95475.47;;;21.67;80.38
15405;BME280;7801;48.124;11.590;2023-06-22T04:09:34;95478.47;;;21.61;80.62
15405;BME280;7801;48.124;11.590;2023-06-22T04:12:01;95484.41;;;21.48;81.03
15405;BME280;7801;48.124;11.590;2023-06-22T04:14:28;95490.16;;;21.46;81.36
15405;BME280;7801;48.124;11.590;2023-06-22T04:16:55;95486.16;;;21.59;81.14
15405;BME280;7801;48.124;11.590;2023-06-22T04:19:21;95479.63;;;21.60;80.58
15405;BME280;7801;48.124;11.590;2023-06-22T04:21:48;95472.97;;;21.54;80.99
15405;BME280;7801;48.124;11.590;2023-06-22T04:24:15;95483.19;;;21.45;81.12
15405;BME280;7801;48.124;11.590;2023-06-22T04:26:41;95481.13;;;21.58;80.68
15405;BME280;7801;48.124;11.590;2023-06-22T04:29:12;95472.41;;;21.45;80.65
15405;BME280;7801;48.124;11.590;2023-06-22T04:34:09;95471.47;;;21.57;80.72
15405;BME280;7801;48.124;11.590;2023-06-22T04:36:45;95473.03;;;21.58;81.22
15405;BME280;7801;48.124;11.590;2023-06-22T04:39:12;95481.22;;;21.65;80.80
15405;BME280;7801;48.124;11.590;2023-06-22T04:41:41;95468.44;;;21.62;80.71
15405;BME280;7801;48.124;11.590;2023-06-22T04:44:12;95473.50;;;21.64;81.16
15405;BME280;7801;48.124;11.590;2023-06-22T04:46:42;95474.16;;;21.57;80.74
15405;BME280;7801;48.124;11.590;2023-06-22T04:49:09;95466.94;;;21.65;81.35
15405;BME280;7801;48.124;11.590;2023-06-22T04:51:42;95468.06;;;21.60;81.18
15405;BME280;7801;48.124;11.590;2023-06-22T04:54:12;95465.59;;;21.74;80.79
15405;BME280;7801;48.124;11.590;2023-06-22T04:56:37;95459.81;;;21.76;80.64
15405;BME280;7801;48.124;11.590;2023-06-22T04:59:08;95455.25;;;21.80;80.69
15405;BME280;7801;48.124;11.590;2023-06-22T05:01:39;95466.16;;;21.64;81.10
15405;BME280;7801;48.124;11.590;2023-06-22T05:04:06;95465.50;;;21.71;81.11
15405;BME280;7801;48.124;11.590;2023-06-22T05:06:34;95461.38;;;21.77;81.17
15405;BME280;7801;48.124;11.590;2023-06-22T05:09:00;95460.25;;;21.78;80.93
15405;BME280;7801;48.124;11.590;2023-06-22T05:11:26;95458.84;;;21.87;80.98
15405;BME280;7801;48.124;11.590;2023-06-22T05:13:54;95446.03;;;21.84;80.96
15405;BME280;7801;48.124;11.590;2023-06-22T05:16:23;95448.94;;;21.72;81.41
15405;BME280;7801;48.124;11.590;2023-06-22T05:18:51;95452.19;;;21.36;83.26
15405;BME280;7801;48.124;11.590;2023-06-22T05:21:23;95453.34;;;21.57;82.52
15405;BME280;7801;48.124;11.590;2023-06-22T05:23:52;95442.91;;;21.56;82.74
15405;BME280;7801;48.124;11.590;2023-06-22T05:26:20;95445.03;;;21.70;82.32
15405;BME280;7801;48.124;11.590;2023-06-22T05:28:47;95440.19;;;21.56;82.97
15405;BME280;7801;48.124;11.590;2023-06-22T05:31:14;95443.06;;;21.67;82.05
15405;BME280;7801;48.124;11.590;2023-06-22T05:33:53;95450.94;;;21.75;82.06
15405;BME280;7801;48.124;11.590;2023-06-22T05:36:19;95442.19;;;21.59;83.42
15405;BME280;7801;48.124;11.590;2023-06-22T05:38:53;95448.75;;;21.61;83.60
15405;BME280;7801;48.124;11.590;2023-06-22T05:41:20;95446.53;;;21.67;83.48
15405;BME280;7801;48.124;11.590;2023-06-22T05:43:46;95441.44;;;21.62;83.17
15405;BME280;7801;48.124;11.590;2023-06-22T05:46:12;95439.12;;;21.60;83.44
15405;BME280;7801;48.124;11.590;2023-06-22T05:48:39;95443.97;;;21.74;83.89
15405;BME280;7801;48.124;11.590;2023-06-22T05:51:06;95447.19;;;21.83;82.96
15405;BME280;7801;48.124;11.590;2023-06-22T05:53:34;95443.56;;;21.72;83.79
15405;BME280;7801;48.124;11.590;2023-06-22T05:55:59;95438.28;;;21.79;83.53
15405;BME280;7801;48.124;11.590;2023-06-22T05:58:30;95438.28;;;22.02;81.54
15405;BME280;7801;48.124;11.590;2023-06-22T06:00:59;95443.09;;;21.93;82.11
15405;BME280;7801;48.124;11.590;2023-06-22T06:03:27;95446.88;;;21.88;82.66
15405;BME280;7801;48.124;11.590;2023-06-22T06:05:56;95449.44;;;22.01;81.92
15405;BME280;7801;48.124;11.590;2023-06-22T06:08:24;95453.44;;;22.10;81.82
15405;BME280;7801;48.124;11.590;2023-06-22T06:10:50;95454.62;;;22.13;82.46
15405;BME280;7801;48.124;11.590;2023-06-22T06:16:27;95442.75;;;22.47;80.74
15405;BME280;7801;48.124;11.590;2023-06-22T06:18:52;95444.09;;;22.60;79.67
15405;BME280;7801;48.124;11.590;2023-06-22T06:21:25;95437.66;;;22.72;79.88
15405;BME280;7801;48.124;11.590;2023-06-22T06:23:51;95437.84;;;22.83;79.37
15405;BME280;7801;48.124;11.590;2023-06-22T06:26:19;95433.63;;;22.85;79.54
15405;BME280;7801;48.124;11.590;2023-06-22T06:28:55;95428.72;;;22.98;79.22
15405;BME280;7801;48.124;11.590;2023-06-22T06:31:22;95429.19;;;23.07;78.38
15405;BME280;7801;48.124;11.590;2023-06-22T06:33:49;95425.34;;;23.08;78.82
15405;BME280;7801;48.124;11.590;2023-06-22T06:36:16;95422.38;;;23.20;77.93
15405;BME280;7801;48.124;11.590;2023-06-22T06:38:46;95428.25;;;23.26;77.93
15405;BME280;7801;48.124;11.590;2023-06-22T06:41:15;95419.41;;;23.33;78.00
15405;BME280;7801;48.124;11.590;2023-06-22T06:43:41;95421.84;;;23.45;76.64
15405;BME280;7801;48.124;11.590;2023-06-22T06:46:09;95421.13;;;23.51;76.49
15405;BME280;7801;48.124;11.590;2023-06-22T06:48:36;95425.81;;;23.54;76.46
15405;BME280;7801;48.124;11.590;2023-06-22T06:51:03;95421.13;;;23.51;76.73
15405;BME280;7801;48.124;11.590;2023-06-22T06:53:30;95415.09;;;23.65;76.41
15405;BME280;7801;48.124;11.590;2023-06-22T06:56:17;95416.69;;;23.73;76.61
15405;BME280;7801;48.124;11.590;2023-06-22T06:58:45;95413.69;;;23.85;75.65
15405;BME280;7801;48.124;11.590;2023-06-22T07:01:12;95410.66;;;23.94;75.62
15405;BME280;7801;48.124;11.590;2023-06-22T07:03:41;95417.00;;;24.16;73.96
15405;BME280;7801;48.124;11.590;2023-06-22T07:06:08;95425.25;;;24.30;73.55
15405;BME280;7801;48.124;11.590;2023-06-22T07:08:36;95424.94;;;24.46;72.61
15405;BME280;7801;48.124;11.590;2023-06-22T07:11:12;95421.88;;;24.54;72.17
15405;BME280;7801;48.124;11.590;2023-06-22T07:13:39;95418.81;;;24.59;72.11
15405;BME280;7801;48.124;11.590;2023-06-22T07:16:05;95413.03;;;24.68;72.00
15405;BME280;7801;48.124;11.590;2023-06-22T07:18:32;95432.91;;;24.90;70.91
15405;BME280;7801;48.124;11.590;2023-06-22T07:20:59;95422.84;;;24.94;71.25
15405;BME280;7801;48.124;11.590;2023-06-22T07:23:26;95424.03;;;25.00;70.23
15405;BME280;7801;48.124;11.590;2023-06-22T07:25:51;95417.88;;;25.10;70.50
15405;BME280;7801;48.124;11.590;2023-06-22T07:28:17;95412.81;;;25.05;71.48
15405;BME280;7801;48.124;11.590;2023-06-22T07:30:43;95422.88;;;25.01;70.67
15405;BME280;7801;48.124;11.590;2023-06-22T07:33:10;95417.06;;;24.99;70.49
15405;BME280;7801;48.124;11.590;2023-06-22T07:35:35;95409.31;;;25.05;70.03
15405;BME280;7801;48.124;11.590;2023-06-22T07:38:03;95402.34;;;25.07;71.28
15405;BME280;7801;48.124;11.590;2023-06-22T07:40:31;95409.34;;;25.12;70.62
15405;BME280;7801;48.124;11.590;2023-06-22T07:42:59;95391.09;;;25.05;70.72
15405;BME280;7801;48.124;11.590;2023-06-22T07:45:25;95392.28;;;25.18;69.77
15405;BME280;7801;48.124;11.590;2023-06-22T07:47:53;95391.91;;;25.27;69.55
15405;BME280;7801;48.124;11.590;2023-06-22T07:50:22;95389.56;;;25.25;69.00
15405;BME280;7801;48.124;11.590;2023-06-22T07:52:48;95395.41;;;25.27;69.33
15405;BME280;7801;48.124;11.590;2023-06-22T07:55:19;95378.72;;;25.25;69.57
15405;BME280;7801;48.124;11.590;2023-06-22T07:57:48;95387.25;;;25.27;69.34
15405;BME280;7801;48.124;11.590;2023-06-22T08:00:17;95390.75;;;25.31;69.89
15405;BME280;7801;48.124;11.590;2023-06-22T08:02:45;95390.34;;;25.37;69.40
15405;BME280;7801;48.124;11.590;2023-06-22T08:05:14;95397.75;;;25.47;68.21
15405;BME280;7801;48.124;11.590;2023-06-22T08:07:41;95387.66;;;25.44;68.59
15405;BME280;7801;48.124;11.590;2023-06-22T08:10:13;95394.66;;;25.48;67.86
15405;BME280;7801;48.124;11.590;2023-06-22T08:12:40;95395.03;;;25.54;67.77
15405;BME280;7801;48.124;11.590;2023-06-22T08:15:08;95392.34;;;25.64;67.32
15405;BME280;7801;48.124;11.590;2023-06-22T08:17:40;95394.69;;;25.62;67.57
15405;BME280;7801;48.124;11.590;2023-06-22T08:20:13;95393.12;;;25.72;67.41
15405;BME280;7801;48.124;11.590;2023-06-22T08:22:43;95385.75;;;25.83;66.40
15405;BME280;7801;48.124;11.590;2023-06-22T08:25:13;95384.97;;;25.90;66.49
15405;BME280;7801;48.124;11.590;2023-06-22T08:27:54;95377.94;;;25.99;66.09
15405;BME280;7801;48.124;11.590;2023-06-22T08:30:21;95382.59;;;26.06;66.10
15405;BME280;7801;48.124;11.590;2023-06-22T08:32:48;95377.56;;;26.12;65.23
15405;BME280;7801;48.124;11.590;2023-06-22T08:35:15;95379.88;;;26.10;64.93
15405;BME280;7801;48.124;11.590;2023-06-22T08:37:42;95388.03;;;26.17;64.97
15405;BME280;7801;48.124;11.590;2023-06-22T08:40:18;95378.28;;;26.23;63.94
15405;BME280;7801;48.124;11.590;2023-06-22T08:42:47;95379.09;;;26.30;63.72
15405;BME280;7801;48.124;11.590;2023-06-22T08:45:15;95377.53;;;26.33;63.60
15405;BME280;7801;48.124;11.590;2023-06-22T08:47:44;95374.41;;;26.24;64.14
15405;BME280;7801;48.124;11.590;2023-06-22T08:50:12;95367.03;;;26.35;63.31
15405;BME280;7801;48.124;11.590;2023-06-22T08:52:40;95371.31;;;26.32;63.55
15405;BME280;7801;48.124;11.590;2023-06-22T08:55:10;95370.88;;;26.41;63.27
15405;BME280;7801;48.124;11.590;2023-06-22T08:57:38;95374.34;;;26.52;62.48
15405;BME280;7801;48.124;11.590;2023-06-22T09:00:08;95366.91;;;26.63;61.52
15405;BME280;7801;48.124;11.590;2023-06-22T09:02:48;95368.47;;;26.64;61.75
15405;BME280;7801;48.124;11.590;2023-06-22T09:05:15;95370.75;;;26.80;60.95
15405;BME280;7801;48.124;11.590;2023-06-22T09:07:41;95364.53;;;26.80;61.16
15405;BME280;7801;48.124;11.590;2023-06-22T09:10:13;95366.41;;;26.90;60.33
15405;BME280;7801;48.124;11.590;2023-06-22T09:12:42;95358.63;;;26.95;60.13
15405;BME280;7801;48.124;11.590;2023-06-22T09:15:12;95360.56;;;26.88;60.48
15405;BME280;7801;48.124;11.590;2023-06-22T09:17:40;95366.78;;;26.88;60.58
15405;BME280;7801;48.124;11.590;2023-06-22T09:20:16;95369.88;;;26.94;60.48
15405;BME280;7801;48.124;11.590;2023-06-22T09:22:48;95361.28;;;27.06;59.88
15405;BME280;7801;48.124;11.590;2023-06-22T09:25:13;95364.44;;;26.97;60.53
15405;BME280;7801;48.124;11.590;2023-06-22T09:27:40;95359.31;;;27.07;60.05
15405;BME280;7801;48.124;11.590;2023-06-22T09:30:05;95359.31;;;27.10;60.07
15405;BME280;7801;48.124;11.590;2023-06-22T09:32:33;95356.59;;;27.07;60.70
15405;BME280;7801;48.124;11.590;2023-06-22T09:35:07;95353.47;;;27.12;60.27
15405;BME280;7801;48.124;11.590;2023-06-22T09:37:37;95343.63;;;27.25;59.66
15405;BME280;7801;48.124;11.590;2023-06-22T09:40:10;95349.38;;;27.41;59.35
15405;BME280;7801;48.124;11.590;2023-06-22T09:42:37;95353.53;;;27.60;58.65
15405;BME280;7801;48.124;11.590;2023-06-22T09:45:05;95353.94;;;27.55;58.83
15405;BME280;7801;48.124;11.590;2023-06-22T09:47:34;95348.34;;;27.73;58.06
15405;BME280;7801;48.124;11.590;2023-06-22T09:49:59;95343.59;;;27.84;57.92
15405;BME280;7801;48.124;11.590;2023-06-22T09:52:27;95349.09;;;27.77;59.24
15405;BME280;7801;48.124;11.590;2023-06-22T09:54:57;95339.97;;;27.94;58.16
15405;BME280;7801;48.124;11.590;2023-06-22T09:57:23;95332.50;;;28.01;57.80
15405;BME280;7801;48.124;11.590;2023-06-22T09:59:53;95329.37;;;28.03;58.10
15405;BME280;7801;48.124;11.590;2023-06-22T10:02:19;95330.03;;;28.14;57.39
15405;BME280;7801;48.124;11.590;2023-06-22T10:04:46;95331.97;;;28.14;57.69
15405;BME280;7801;48.124;11.590;2023-06-22T10:07:14;95320.81;;;28.38;56.59
15405;BME280;7801;48.124;11.590;2023-06-22T10:09:42;95321.03;;;28.51;56.36
15405;BME280;7801;48.124;11.590;2023-06-22T10:12:08;95313.13;;;28.60;55.93
15405;BME280;7801;48.124;11.590;2023-06-22T10:14:35;95320.75;;;28.72;56.05
15405;BME280;7801;48.124;11.590;2023-06-22T10:17:02;95314.47;;;28.76;56.05
15405;BME280;7801;48.124;11.590;2023-06-22T10:19:28;95313.53;;;28.89;54.91
15405;BME280;7801;48.124;11.590;2023-06-22T10:21:55;95317.25;;;29.02;54.18
15405;BME280;7801;48.124;11.590;2023-06-22T10:24:20;95314.00;;;29.11;53.90
15405;BME280;7801;48.124;11.590;2023-06-22T10:26:47;95313.84;;;29.22;53.42
15405;BME280;7801;48.124;11.590;2023-06-22T10:29:15;95322.78;;;29.26;53.35
15405;BME280;7801;48.124;11.590;2023-06-22T10:31:44;95318.91;;;29.23;53.66
15405;BME280;7801;48.124;11.590;2023-06-22T10:34:13;95302.50;;;29.23;53.61
15405;BME280;7801;48.124;11.590;2023-06-22T10:36:52;95321.69;;;29.47;53.15
15405;BME280;7801;48.124;11.590;2023-06-22T10:39:19;95306.87;;;29.44;53.08
15405;BME280;7801;48.124;11.590;2023-06-22T10:41:46;95306.66;;;29.58;52.29
15405;BME280;7801;48.124;11.590;2023-06-22T10:44:13;95306.53;;;29.65;52.24
15405;BME280;7801;48.124;11.590;2023-06-22T10:46:41;95297.00;;;29.73;51.98
15405;BME280;7801;48.124;11.590;2023-06-22T10:49:08;95301.78;;;29.69;51.70
15405;BME280;7801;48.124;11.590;2023-06-22T10:51:36;95293.56;;;29.69;51.37
15405;BME280;7801;48.124;11.590;2023-06-22T10:54:04;95295.44;;;29.72;51.49
15405;BME280;7801;48.124;11.590;2023-06-22T10:56:30;95288.56;;;29.88;50.27
15405;BME280;7801;48.124;11.590;2023-06-22T10:58:56;95280.97;;;29.95;49.97
15405;BME280;7801;48.124;11.590;2023-06-22T11:01:23;95277.41;;;29.98;50.19
15405;BME280;7801;48.124;11.590;2023-06-22T11:03:48;95286.22;;;30.10;50.31
15405;BME280;7801;48.124;11.590;2023-06-22T11:06:17;95276.16;;;30.23;50.41
15405;BME280;7801;48.124;11.590;2023-06-22T11:08:44;95274.63;;;30.22;50.42
15405;BME280;7801;48.124;11.590;2023-06-22T11:11:15;95280.94;;;30.19;50.85
15405;BME280;7801;48.124;11.590;2023-06-22T11:13:44;95274.63;;;30.22;49.91
15405;BME280;7801;48.124;11.590;2023-06-22T11:16:12;95276.25;;;30.19;49.80
15405;BME280;7801;48.124;11.590;2023-06-22T11:18:37;95282.19;;;30.14;49.96
15405;BME280;7801;48.124;11.590;2023-06-22T11:21:06;95277.78;;;30.20;50.25
15405;BME280;7801;48.124;11.590;2023-06-22T11:23:32;95272.53;;;30.10;50.60
15405;BME280;7801;48.124;11.590;2023-06-22T11:25:57;95277.38;;;30.22;49.27
15405;BME280;7801;48.124;11.590;2023-06-22T11:28:24;95273.78;;;30.25;49.05
15405;BME280;7801;48.124;11.590;2023-06-22T11:30:49;95278.00;;;30.29;49.30
15405;BME280;7801;48.124;11.590;2023-06-22T11:33:15;95266.13;;;30.36;49.24
15405;BME280;7801;48.124;11.590;2023-06-22T11:35:42;95263.16;;;30.47;49.15
15405;BME280;7801;48.124;11.590;2023-06-22T11:38:08;95258.47;;;30.47;49.54
15405;BME280;7801;48.124;11.590;2023-06-22T11:40:35;95257.97;;;30.52;49.56
15405;BME280;7801;48.124;11.590;2023-06-22T11:43:02;95251.84;;;30.64;49.00
15405;BME280;7801;48.124;11.590;2023-06-22T11:45:31;95249.75;;;30.52;49.58
15405;BME280;7801;48.124;11.590;2023-06-22T11:47:57;95239.56;;;30.72;49.07
15405;BME280;7801;48.124;11.590;2023-06-22T11:50:25;95240.91;;;30.64;49.75
15405;BME280;7801;48.124;11.590;2023-06-22T11:52:53;95236.03;;;30.72;49.39
15405;BME280;7801;48.124;11.590;2023-06-22T11:55:21;95231.50;;;30.82;49.72
15405;BME280;7801;48.124;11.590;2023-06-22T11:57:56;95233.38;;;30.85;48.52
15405;BME280;7801;48.124;11.590;2023-06-22T12:00:31;95240.34;;;30.89;48.13
15405;BME280;7801;48.124;11.590;2023-06-22T12:03:00;95231.19;;;30.96;50.10
15405;BME280;7801;48.124;11.590;2023-06-22T12:05:31;95236.47;;;31.03;49.26
15405;BME280;7801;48.124;11.590;2023-06-22T12:07:59;95230.84;;;30.94;49.89
15405;BME280;7801;48.124;11.590;2023-06-22T12:10:26;95227.84;;;30.88;50.75
15405;BME280;7801;48.124;11.590;2023-06-22T12:13:10;95224.31;;;31.04;50.53
15405;BME280;7801;48.124;11.590;2023-06-22T12:15:36;95222.69;;;30.90;51.15
15405;BME280;7801;48.124;11.590;2023-06-22T12:18:02;95216.88;;;30.88;50.78
15405;BME280;7801;48.124;11.590;2023-06-22T12:20:30;95207.53;;;30.86;50.07
15405;BME280;7801;48.124;11.590;2023-06-22T12:22:57;95204.09;;;30.98;50.90
15405;BME280;7801;48.124;11.590;2023-06-22T12:25:24;95203.94;;;31.05;50.82
15405;BME280;7801;48.124;11.590;2023-06-22T12:27:51;95200.69;;;31.10;50.77
15405;BME280;7801;48.124;11.590;2023-06-22T12:30:16;95194.38;;;31.13;49.76
15405;BME280;7801;48.124;11.590;2023-06-22T12:32:45;95188.03;;;31.16;49.48
15405;BME280;7801;48.124;11.590;2023-06-22T12:35:12;95187.91;;;31.20;49.81
15405;BME280;7801;48.124;11.590;2023-06-22T12:37:44;95183.37;;;31.29;49.28
15405;BME280;7801;48.124;11.590;2023-06-22T12:40:10;95176.69;;;31.30;49.33
15405;BME280;7801;48.124;11.590;2023-06-22T12:42:38;95178.25;;;31.31;49.63
15405;BME280;7801;48.124;11.590;2023-06-22T12:45:05;95177.37;;;31.18;49.97
15405;BME280;7801;48.124;11.590;2023-06-22T12:47:36;95174.38;;;31.29;49.32
15405;BME280;7801;48.124;11.590;2023-06-22T12:50:03;95174.03;;;31.27;48.90
15405;BME280;7801;48.124;11.590;2023-06-22T12:52:31;95167.78;;;31.26;49.26
15405;BME280;7801;48.124;11.590;2023-06-22T12:54:59;95176.53;;;31.37;49.03
15405;BME280;7801;48.124;11.590;2023-06-22T12:57:27;95169.37;;;31.40;49.13
15405;BME280;7801;48.124;11.590;2023-06-22T12:59:53;95168.13;;;31.28;49.42
15405;BME280;7801;48.124;11.590;2023-06-22T13:02:20;95171.66;;;31.29;49.50
15405;BME280;7801;48.124;11.590;2023-06-22T13:04:50;95167.44;;;31.24;49.69
15405;BME280;7801;48.124;11.590;2023-06-22T13:07:16;95174.59;;;31.51;48.97
15405;BME280;7801;48.124;11.590;2023-06-22T13:09:41;95171.97;;;31.60;48.94
15405;BME280;7801;48.124;11.590;2023-06-22T13:12:08;95162.72;;;31.70;49.56
15405;BME280;7801;48.124;11.590;2023-06-22T13:14:35;95171.66;;;31.74;49.53
15405;BME280;7801;48.124;11.590;2023-06-22T13:17:03;95178.16;;;31.64;49.93
15405;BME280;7801;48.124;11.590;2023-06-22T13:19:30;95172.16;;;31.69;49.36
15405;BME280;7801;48.124;11.590;2023-06-22T13:21:58;95171.06;;;31.66;49.73